sensor_id;sensor_type;location;lat;lon;timestamp;pressure;altitude;pressure_sealevel;temperature;humidity
56632;BME280;42503;39.928;-75.152;2023-02-01T00:00:14;102231.69;;;20.23;36.85
56632;BME280;42503;39.928;-75.152;2023-02-01T00:10:16;102234.38;;;20.18;38.05
56632;BME280;42503;39.928;-75.152;2023-02-01T00:20:21;102259.84;;;20.27;37.97
56632;BME280;42503;39.928;-75.152;2023-02-01T00:30:22;102241.81;;;20.29;38.38
56632;BME280;42503;39.928;-75.152;2023-02-01T00:40:23;102202.91;;;20.29;38.11
56632;BME280;42503;39.928;-75.152;2023-02-01T00:50:25;102245.22;;;20.31;38.43
56632;BME280;42503;39.928;-75.152;2023-02-01T01:00:26;102259.84;;;20.27;38.36
56632;BME280;42503;39.928;-75.152;2023-02-01T01:10:27;102259.72;;;20.34;37.80
56632;BME280;42503;39.928;-75.152;2023-02-01T01:20:29;102264.44;;;20.33;37.98
56632;BME280;42503;39.928;-75.152;2023-02-01T01:30:31;102265.78;;;20.30;37.80
56632;BME280;42503;39.928;-75.152;2023-02-01T01:40:32;102300.34;;;20.35;37.79
56632;BME280;42503;39.928;-75.152;2023-02-01T01:50:39;102256.97;;;20.10;37.72
56632;BME280;42503;39.928;-75.152;2023-02-01T02:00:42;102294.16;;;20.33;37.76
56632;BME280;42503;39.928;-75.152;2023-02-01T02:10:44;102277.75;;;20.31;37.59
56632;BME280;42503;39.928;-75.152;2023-02-01T02:21:23;102243.53;;;20.30;37.41
56632;BME280;42503;39.928;-75.152;2023-02-01T02:32:02;102220.72;;;20.17;37.54
56632;BME280;42503;39.928;-75.152;2023-02-01T02:53:30;102247.03;;;20.49;37.83
56632;BME280;42503;39.928;-75.152;2023-02-01T03:03:42;102261.97;;;20.60;37.88
56632;BME280;42503;39.928;-75.152;2023-02-01T03:14:10;102244.91;;;20.68;37.62
56632;BME280;42503;39.928;-75.152;2023-02-01T03:24:20;102216.06;;;20.74;37.68
56632;BME280;42503;39.928;-75.152;2023-02-01T03:34:23;102215.09;;;20.80;37.85
56632;BME280;42503;39.928;-75.152;2023-02-01T03:44:31;102227.38;;;20.85;38.24
56632;BME280;42503;39.928;-75.152;2023-02-01T03:54:33;102235.16;;;20.83;38.13
56632;BME280;42503;39.928;-75.152;2023-02-01T04:04:36;102239.84;;;20.94;37.95
56632;BME280;42503;39.928;-75.152;2023-02-01T04:14:37;102232.31;;;20.94;37.89
56632;BME280;42503;39.928;-75.152;2023-02-01T04:24:41;102189.84;;;20.99;38.07
56632;BME280;42503;39.928;-75.152;2023-02-01T04:34:45;102171.75;;;20.85;37.84
56632;BME280;42503;39.928;-75.152;2023-02-01T04:44:47;102182.41;;;21.04;37.73
56632;BME280;42503;39.928;-75.152;2023-02-01T04:54:48;102143.44;;;21.04;37.81
56632;BME280;42503;39.928;-75.152;2023-02-01T05:04:50;102157.09;;;21.06;38.23
56632;BME280;42503;39.928;-75.152;2023-02-01T05:14:51;102110.41;;;21.08;37.99
56632;BME280;42503;39.928;-75.152;2023-02-01T05:24:55;102125.38;;;21.07;37.92
56632;BME280;42503;39.928;-75.152;2023-02-01T05:34:57;102155.75;;;21.09;38.03
56632;BME280;42503;39.928;-75.152;2023-02-01T05:44:58;102077.56;;;20.93;37.63
56632;BME280;42503;39.928;-75.152;2023-02-01T05:55:00;102098.66;;;21.06;37.58
56632;BME280;42503;39.928;-75.152;2023-02-01T06:05:01;102116.47;;;21.05;37.29
56632;BME280;42503;39.928;-75.152;2023-02-01T06:15:03;102113.69;;;21.05;37.21
56632;BME280;42503;39.928;-75.152;2023-02-01T06:25:06;102105.81;;;21.02;36.91
56632;BME280;42503;39.928;-75.152;2023-02-01T06:35:09;102140.31;;;21.01;36.68
56632;BME280;42503;39.928;-75.152;2023-02-01T06:45:17;102168.41;;;20.99;36.56
56632;BME280;42503;39.928;-75.152;2023-02-01T06:55:18;102184.50;;;20.97;36.88
56632;BME280;42503;39.928;-75.152;2023-02-01T07:05:19;102199.25;;;20.98;36.34
56632;BME280;42503;39.928;-75.152;2023-02-01T07:15:21;102178.19;;;21.02;36.37
56632;BME280;42503;39.928;-75.152;2023-02-01T07:25:25;102156.25;;;21.05;36.43
56632;BME280;42503;39.928;-75.152;2023-02-01T07:35:30;102166.63;;;21.10;36.17
56632;BME280;42503;39.928;-75.152;2023-02-01T07:45:31;102132.91;;;21.06;36.37
56632;BME280;42503;39.928;-75.152;2023-02-01T07:55:33;102094.69;;;21.19;36.25
56632;BME280;42503;39.928;-75.152;2023-02-01T08:05:35;102124.81;;;21.22;35.88
56632;BME280;42503;39.928;-75.152;2023-02-01T08:15:37;102179.72;;;21.26;35.88
56632;BME280;42503;39.928;-75.152;2023-02-01T08:25:39;102123.50;;;21.29;35.69
56632;BME280;42503;39.928;-75.152;2023-02-01T08:35:46;102108.53;;;21.30;35.55
56632;BME280;42503;39.928;-75.152;2023-02-01T08:45:51;102120.53;;;21.31;35.88
56632;BME280;42503;39.928;-75.152;2023-02-01T08:55:54;102122.53;;;21.36;35.21
56632;BME280;42503;39.928;-75.152;2023-02-01T09:06:03;102159.50;;;21.31;35.16
56632;BME280;42503;39.928;-75.152;2023-02-01T09:16:05;102121.84;;;21.28;35.56
56632;BME280;42503;39.928;-75.152;2023-02-01T09:26:06;102172.91;;;21.34;35.60
56632;BME280;42503;39.928;-75.152;2023-02-01T09:36:08;102192.91;;;21.31;35.41
56632;BME280;42503;39.928;-75.152;2023-02-01T09:46:28;102217.88;;;21.26;35.23
56632;BME280;42503;39.928;-75.152;2023-02-01T09:57:06;102230.41;;;21.28;35.17
56632;BME280;42503;39.928;-75.152;2023-02-01T10:27:47;102241.78;;;21.10;35.05
56632;BME280;42503;39.928;-75.152;2023-02-01T10:37:50;102234.13;;;21.17;34.69
56632;BME280;42503;39.928;-75.152;2023-02-01T10:47:53;102210.50;;;21.03;34.68
56632;BME280;42503;39.928;-75.152;2023-02-01T10:58:01;102246.34;;;21.16;34.90
56632;BME280;42503;39.928;-75.152;2023-02-01T11:08:03;102214.56;;;21.12;34.82
56632;BME280;42503;39.928;-75.152;2023-02-01T11:18:18;102216.75;;;21.10;34.71
56632;BME280;42503;39.928;-75.152;2023-02-01T11:28:23;102270.09;;;21.07;34.39
56632;BME280;42503;39.928;-75.152;2023-02-01T11:38:31;102286.81;;;21.07;34.66
56632;BME280;42503;39.928;-75.152;2023-02-01T11:48:33;102294.66;;;21.10;34.80
56632;BME280;42503;39.928;-75.152;2023-02-01T11:59:11;102319.38;;;21.06;34.97
56632;BME280;42503;39.928;-75.152;2023-02-01T12:40:06;102351.34;;;21.33;35.88
56632;BME280;42503;39.928;-75.152;2023-02-01T12:50:38;102376.50;;;21.38;36.17
56632;BME280;42503;39.928;-75.152;2023-02-01T13:00:46;102393.09;;;21.44;35.79
56632;BME280;42503;39.928;-75.152;2023-02-01T13:11:03;102404.53;;;21.48;35.83
56632;BME280;42503;39.928;-75.152;2023-02-01T13:21:14;102395.63;;;21.46;35.69
56632;BME280;42503;39.928;-75.152;2023-02-01T13:31:29;102401.28;;;21.51;35.67
56632;BME280;42503;39.928;-75.152;2023-02-01T13:41:51;102431.44;;;21.54;35.72
56632;BME280;42503;39.928;-75.152;2023-02-01T13:51:58;102390.69;;;21.36;35.33
56632;BME280;42503;39.928;-75.152;2023-02-01T14:02:59;102454.69;;;21.48;35.53
56632;BME280;42503;39.928;-75.152;2023-02-01T14:12:48;102469.31;;;21.55;35.69
56632;BME280;42503;39.928;-75.152;2023-02-01T14:23:01;102473.19;;;21.54;35.78
56632;BME280;42503;39.928;-75.152;2023-02-01T14:33:17;102466.53;;;21.55;35.66
56632;BME280;42503;39.928;-75.152;2023-02-01T14:43:48;102467.88;;;21.52;35.82
56632;BME280;42503;39.928;-75.152;2023-02-01T14:53:50;102477.19;;;21.58;35.99
56632;BME280;42503;39.928;-75.152;2023-02-01T15:04:11;102501.66;;;21.56;35.86
56632;BME280;42503;39.928;-75.152;2023-02-01T15:14:13;102493.91;;;21.58;35.76
56632;BME280;42503;39.928;-75.152;2023-02-01T15:34:23;102525.38;;;21.59;35.41
56632;BME280;42503;39.928;-75.152;2023-02-01T15:44:45;102513.28;;;21.53;35.33
56632;BME280;42503;39.928;-75.152;2023-02-01T15:54:49;102521.03;;;21.51;35.48
56632;BME280;42503;39.928;-75.152;2023-02-01T16:04:53;102532.78;;;21.53;35.32
56632;BME280;42503;39.928;-75.152;2023-02-01T16:14:55;102525.03;;;21.43;35.30
56632;BME280;42503;39.928;-75.152;2023-02-01T16:24:56;102550.34;;;21.53;35.55
56632;BME280;42503;39.928;-75.152;2023-02-01T16:34:58;102534.22;;;21.55;35.50
56632;BME280;42503;39.928;-75.152;2023-02-01T16:44:59;102523.28;;;21.66;35.11
56632;BME280;42503;39.928;-75.152;2023-02-01T16:55:01;102502.19;;;21.70;34.81
56632;BME280;42503;39.928;-75.152;2023-02-01T17:05:05;102472.16;;;21.72;34.70
56632;BME280;42503;39.928;-75.152;2023-02-01T17:15:08;102464.38;;;21.74;34.33
56632;BME280;42503;39.928;-75.152;2023-02-01T17:25:18;102419.81;;;21.74;34.56
56632;BME280;42503;39.928;-75.152;2023-02-01T17:35:23;102405.63;;;21.75;34.28
56632;BME280;42503;39.928;-75.152;2023-02-01T17:46:02;102394.94;;;21.55;34.49
56632;BME280;42503;39.928;-75.152;2023-02-01T17:56:04;102386.78;;;21.66;33.90
56632;BME280;42503;39.928;-75.152;2023-02-01T18:06:09;102392.69;;;21.69;33.41
56632;BME280;42503;39.928;-75.152;2023-02-01T18:16:23;102392.44;;;21.71;33.79
56632;BME280;42503;39.928;-75.152;2023-02-01T18:26:25;102393.28;;;21.71;33.84
56632;BME280;42503;39.928;-75.152;2023-02-01T18:36:27;102364.25;;;21.67;33.46
56632;BME280;42503;39.928;-75.152;2023-02-01T18:46:30;102364.66;;;21.59;33.34
56632;BME280;42503;39.928;-75.152;2023-02-01T18:56:34;102350.66;;;21.54;33.66
56632;BME280;42503;39.928;-75.152;2023-02-01T19:06:35;102329.44;;;21.53;33.36
56632;BME280;42503;39.928;-75.152;2023-02-01T19:16:37;102327.66;;;21.47;33.56
56632;BME280;42503;39.928;-75.152;2023-02-01T19:26:39;102317.63;;;21.46;33.54
56632;BME280;42503;39.928;-75.152;2023-02-01T19:36:41;102290.81;;;21.40;33.66
56632;BME280;42503;39.928;-75.152;2023-02-01T19:46:43;102314.16;;;21.39;33.56
56632;BME280;42503;39.928;-75.152;2023-02-01T19:56:45;102304.59;;;21.35;33.81
56632;BME280;42503;39.928;-75.152;2023-02-01T20:06:49;102313.69;;;21.30;33.70
56632;BME280;42503;39.928;-75.152;2023-02-01T20:16:50;102331.47;;;21.29;33.62
56632;BME280;42503;39.928;-75.152;2023-02-01T20:26:52;102356.81;;;21.27;33.75
56632;BME280;42503;39.928;-75.152;2023-02-01T20:36:53;102353.19;;;21.27;33.77
56632;BME280;42503;39.928;-75.152;2023-02-01T20:46:54;102364.31;;;21.27;33.53
56632;BME280;42503;39.928;-75.152;2023-02-01T20:56:56;102370.09;;;21.25;33.66
56632;BME280;42503;39.928;-75.152;2023-02-01T21:06:58;102335.38;;;20.99;33.72
56632;BME280;42503;39.928;-75.152;2023-02-01T21:16:59;102361.75;;;21.25;33.51
56632;BME280;42503;39.928;-75.152;2023-02-01T21:27:01;102365.88;;;21.35;33.83
56632;BME280;42503;39.928;-75.152;2023-02-01T21:37:02;102372.41;;;21.40;33.63
56632;BME280;42503;39.928;-75.152;2023-02-01T21:47:04;102376.38;;;21.44;33.44
56632;BME280;42503;39.928;-75.152;2023-02-01T21:57:08;102368.34;;;21.48;33.21
56632;BME280;42503;39.928;-75.152;2023-02-01T22:07:15;102375.09;;;21.52;33.35
56632;BME280;42503;39.928;-75.152;2023-02-01T22:17:17;102392.44;;;21.54;33.32
56632;BME280;42503;39.928;-75.152;2023-02-01T22:27:18;102400.19;;;21.52;33.19
56632;BME280;42503;39.928;-75.152;2023-02-01T22:37:19;102395.78;;;21.56;33.04
56632;BME280;42503;39.928;-75.152;2023-02-01T22:47:21;102383.47;;;21.52;32.51
56632;BME280;42503;39.928;-75.152;2023-02-01T22:57:22;102392.72;;;21.41;32.55
56632;BME280;42503;39.928;-75.152;2023-02-01T23:07:24;102439.16;;;21.52;32.72
56632;BME280;42503;39.928;-75.152;2023-02-01T23:17:26;102437.75;;;21.49;32.71
56632;BME280;42503;39.928;-75.152;2023-02-01T23:27:27;102461.00;;;21.43;33.05
56632;BME280;42503;39.928;-75.152;2023-02-01T23:37:31;102462.94;;;21.43;33.56
56632;BME280;42503;39.928;-75.152;2023-02-01T23:47:32;102476.63;;;21.44;33.57
56632;BME280;42503;39.928;-75.152;2023-02-01T23:57:34;102491.16;;;21.46;33.57
